createdAt,value
2018-08-17T00:00:58.838Z,12.60
2018-08-17T00:01:58.772Z,13.00
2018-08-17T00:02:58.689Z,12.20
2018-08-17T00:03:58.600Z,13.20
2018-08-17T00:04:58.528Z,12.70
2018-08-17T00:05:58.462Z,13.10
2018-08-17T00:06:58.380Z,13.20
2018-08-17T00:07:58.283Z,12.90
2018-08-17T00:08:58.222Z,12.90
2018-08-17T00:09:58.143Z,13.60
2018-08-17T00:10:59.112Z,13.40
2018-08-17T00:11:57.967Z,13.40
2018-08-17T00:14:39.887Z,13.10
2018-08-17T00:15:40.827Z,13.30
2018-08-17T00:16:39.738Z,13.20
2018-08-17T00:19:21.888Z,15.20
2018-08-17T00:20:21.824Z,14.40
2018-08-17T00:21:21.754Z,13.70
2018-08-17T00:22:21.663Z,15.40
2018-08-17T00:23:21.569Z,14.60
2018-08-17T00:24:21.497Z,15.20
2018-08-17T00:25:21.432Z,14.90
2018-08-17T00:26:21.362Z,15.70
2018-08-17T00:27:21.270Z,14.70
2018-08-17T00:28:21.240Z,15.30
2018-08-17T00:29:21.115Z,15.10
2018-08-17T00:32:03.406Z,15.70
2018-08-17T00:33:03.328Z,15.90
2018-08-17T00:34:03.315Z,15.40
2018-08-17T00:35:03.160Z,16.20
2018-08-17T00:36:03.113Z,14.70
2018-08-17T00:38:44.892Z,13.90
2018-08-17T00:39:44.830Z,13.90
2018-08-17T00:40:44.739Z,13.60
2018-08-17T00:41:44.695Z,14.00
2018-08-17T00:42:44.580Z,15.80
2018-08-17T00:45:26.412Z,13.40
2018-08-17T00:46:27.335Z,14.10
2018-08-17T00:47:26.252Z,14.60
2018-08-17T00:48:26.165Z,14.00
2018-08-17T00:49:26.076Z,15.60
2018-08-17T00:50:26.034Z,15.80
2018-08-17T00:51:25.971Z,14.60
2018-08-17T00:52:26.873Z,14.10
2018-08-17T00:53:25.768Z,13.90
2018-08-17T00:54:25.699Z,14.60
2018-08-17T00:55:25.660Z,13.80
2018-08-17T00:56:25.551Z,14.50
2018-08-17T00:57:25.480Z,15.00
2018-08-17T00:58:25.392Z,14.90
2018-08-17T00:59:25.299Z,14.30
2018-08-17T01:00:25.242Z,14.20
2018-08-17T01:01:25.143Z,13.50
2018-08-17T01:02:26.091Z,13.20
2018-08-17T01:03:24.984Z,13.40
2018-08-17T01:04:24.911Z,13.50
2018-08-17T01:05:24.845Z,13.80
2018-08-17T01:08:06.921Z,13.00
2018-08-17T01:09:06.826Z,12.90
2018-08-17T01:10:06.748Z,12.90
2018-08-17T01:11:06.674Z,14.10
2018-08-17T01:12:06.619Z,14.00
2018-08-17T01:13:06.512Z,13.40
2018-08-17T01:14:06.435Z,13.00
2018-08-17T01:15:06.356Z,14.10
2018-08-17T01:16:06.274Z,13.10
2018-08-17T01:18:48.446Z,13.30
2018-08-17T01:19:48.330Z,13.30
2018-08-17T01:20:48.260Z,12.80
2018-08-17T01:21:48.182Z,12.50
2018-08-17T01:22:48.112Z,13.40
2018-08-17T01:25:29.904Z,13.30
2018-08-17T01:26:29.833Z,12.80
2018-08-17T01:27:29.748Z,13.10
2018-08-17T01:28:30.711Z,13.80
2018-08-17T01:29:29.587Z,13.40
2018-08-17T01:30:29.524Z,13.90
2018-08-17T01:31:29.444Z,14.20
2018-08-17T01:32:29.379Z,14.80
2018-08-17T01:33:29.297Z,15.20
2018-08-17T01:34:29.233Z,14.10
2018-08-17T01:35:29.126Z,14.30
2018-08-17T01:36:29.050Z,14.10
2018-08-17T01:37:28.968Z,14.70
2018-08-17T01:38:28.918Z,14.40
2018-08-17T01:39:28.832Z,15.60
2018-08-17T01:40:28.751Z,15.00
2018-08-17T01:41:28.649Z,14.90
2018-08-17T01:44:10.932Z,14.70
2018-08-17T01:45:10.860Z,15.50
2018-08-17T01:46:10.758Z,15.80
2018-08-17T01:47:10.688Z,16.50
2018-08-17T01:48:10.625Z,16.10
2018-08-17T01:50:52.425Z,15.30
2018-08-17T01:51:52.345Z,18.20
2018-08-17T01:52:52.253Z,18.10
2018-08-17T01:53:53.207Z,19.10
2018-08-17T01:54:52.160Z,19.10
2018-08-17T01:55:52.021Z,20.00
2018-08-17T01:56:51.936Z,20.10
2018-08-17T01:57:51.871Z,20.50
2018-08-17T01:58:51.798Z,20.30
2018-08-17T01:59:52.739Z,20.90
2018-08-17T02:00:51.628Z,22.50
2018-08-17T02:01:51.581Z,23.00
2018-08-17T02:02:51.467Z,22.60
2018-08-17T02:03:52.419Z,23.90
2018-08-17T02:04:51.352Z,23.50
2018-08-17T02:05:51.237Z,23.60
2018-08-17T02:06:51.164Z,24.30
2018-08-17T02:07:51.079Z,24.60
2018-08-17T02:08:51.014Z,25.00
2018-08-17T02:09:50.930Z,23.30
2018-08-17T02:10:50.848Z,23.60
2018-08-17T02:11:50.761Z,23.60
2018-08-17T02:12:50.683Z,24.30
2018-08-17T02:13:50.632Z,24.60
2018-08-17T02:14:50.589Z,24.30
2018-08-17T02:15:50.456Z,23.90
2018-08-17T02:16:50.379Z,24.80
2018-08-17T02:19:32.465Z,24.30
2018-08-17T02:22:14.426Z,24.20
2018-08-17T02:23:14.346Z,22.50
2018-08-17T02:24:14.300Z,23.30
2018-08-17T02:25:14.200Z,22.60
2018-08-17T02:26:14.106Z,21.90
2018-08-17T02:27:14.040Z,21.40
2018-08-17T02:28:13.951Z,21.50
2018-08-17T02:29:13.898Z,20.90
2018-08-17T02:30:13.797Z,20.90
2018-08-17T02:31:13.724Z,19.80
2018-08-17T02:32:13.643Z,19.10
2018-08-17T02:34:55.942Z,19.90
2018-08-17T02:35:55.856Z,18.70
2018-08-17T02:36:55.810Z,18.30
2018-08-17T02:39:37.930Z,17.30
2018-08-17T02:40:37.850Z,16.10
2018-08-17T02:41:37.799Z,16.80
2018-08-17T02:42:37.692Z,16.20
2018-08-17T02:43:37.625Z,16.40
2018-08-17T02:44:37.549Z,15.90
2018-08-17T02:45:37.466Z,15.60
2018-08-17T02:46:37.406Z,15.00
2018-08-17T02:47:37.297Z,15.20
2018-08-17T02:48:37.250Z,14.70
2018-08-17T02:49:37.135Z,13.30
2018-08-17T02:50:37.089Z,13.00
2018-08-17T02:51:37.009Z,13.10
2018-08-17T02:52:36.901Z,12.80
2018-08-17T02:53:36.832Z,12.60
2018-08-17T02:54:36.747Z,11.90
2018-08-17T02:55:36.664Z,12.40
2018-08-17T02:56:36.607Z,11.40
2018-08-17T02:57:36.513Z,11.30
2018-08-17T02:58:36.433Z,11.40
2018-08-17T02:59:36.411Z,11.50
2018-08-17T03:02:18.453Z,10.50
2018-08-17T03:05:00.429Z,10.50
2018-08-17T03:06:00.380Z,10.10
2018-08-17T03:07:00.278Z,9.90
2018-08-17T03:08:00.211Z,10.90
2018-08-17T03:09:00.144Z,9.10
2018-08-17T03:10:00.050Z,9.60
2018-08-17T03:10:59.982Z,9.10
2018-08-17T03:12:00.899Z,9.00
2018-08-17T03:12:59.817Z,9.20
2018-08-17T03:13:59.753Z,8.90
2018-08-17T03:14:59.648Z,9.40
2018-08-17T03:15:59.592Z,8.70
2018-08-17T03:16:59.488Z,8.80
2018-08-17T03:17:59.423Z,9.20
2018-08-17T03:18:59.391Z,8.80
2018-08-17T03:21:41.438Z,9.60
2018-08-17T03:22:41.372Z,8.50
2018-08-17T03:23:41.297Z,9.70
2018-08-17T03:24:41.214Z,9.90
2018-08-17T03:25:41.127Z,10.40
2018-08-17T03:26:41.054Z,10.10
2018-08-17T03:27:40.983Z,10.40
2018-08-17T03:28:40.924Z,10.70
2018-08-17T03:29:40.826Z,11.00
2018-08-17T03:30:40.735Z,10.50
2018-08-17T03:31:40.652Z,10.90
2018-08-17T03:32:40.586Z,10.80
2018-08-17T03:33:40.519Z,10.60
2018-08-17T03:34:41.434Z,10.20
2018-08-17T03:35:40.339Z,10.80
2018-08-17T03:38:22.452Z,10.40
2018-08-17T03:39:23.386Z,8.80
2018-08-17T03:40:22.282Z,8.70
2018-08-17T03:43:04.444Z,8.60
2018-08-17T03:44:04.398Z,8.30
2018-08-17T03:45:04.296Z,8.60
2018-08-17T03:46:04.217Z,8.30
2018-08-17T03:47:04.127Z,8.00
2018-08-17T03:48:04.057Z,7.90
2018-08-17T03:49:04.005Z,7.80
2018-08-17T03:50:03.918Z,7.90
2018-08-17T03:51:03.815Z,7.80
2018-08-17T03:52:03.742Z,7.70
2018-08-17T03:53:03.654Z,7.90
2018-08-17T03:54:03.578Z,7.40
2018-08-17T03:55:03.527Z,8.10
2018-08-17T03:56:03.433Z,7.40
2018-08-17T03:57:03.333Z,7.60
2018-08-17T03:59:45.591Z,7.30
2018-08-17T04:00:46.411Z,7.30
2018-08-17T04:01:45.299Z,6.90
2018-08-17T04:04:27.456Z,7.10
2018-08-17T04:05:27.388Z,6.80
2018-08-17T04:06:27.302Z,6.50
2018-08-17T04:09:09.453Z,7.10
2018-08-17T04:11:51.478Z,6.50
2018-08-17T04:12:51.376Z,6.70
2018-08-17T04:13:51.310Z,6.80
2018-08-17T04:14:51.220Z,6.70
2018-08-17T04:15:51.168Z,6.70
2018-08-17T04:16:51.068Z,6.70
2018-08-17T04:17:50.975Z,6.20
2018-08-17T04:20:33.559Z,6.50
2018-08-17T04:21:32.953Z,6.80
2018-08-17T04:22:32.803Z,6.70
2018-08-17T04:23:32.740Z,6.10
2018-08-17T04:24:32.635Z,6.70
2018-08-17T04:25:32.568Z,6.70
2018-08-17T04:26:32.527Z,6.10
2018-08-17T04:29:14.462Z,6.90
2018-08-17T04:30:14.384Z,7.00
2018-08-17T04:31:14.324Z,7.00
2018-08-17T04:32:14.257Z,6.90
2018-08-17T04:33:14.139Z,6.80
2018-08-17T04:34:14.071Z,6.30
2018-08-17T04:35:13.981Z,6.60
2018-08-17T04:36:14.926Z,6.20
2018-08-17T04:37:13.839Z,6.60
2018-08-17T04:38:13.763Z,6.70
2018-08-17T04:39:13.668Z,6.50
2018-08-17T04:40:13.723Z,6.30
2018-08-17T04:41:13.543Z,6.90
2018-08-17T04:43:55.474Z,6.60
2018-08-17T04:44:55.392Z,7.40
2018-08-17T04:45:55.306Z,6.80
2018-08-17T04:46:55.270Z,6.70
2018-08-17T04:47:55.164Z,7.10
2018-08-17T04:48:55.093Z,6.70
2018-08-17T04:49:54.997Z,6.80
2018-08-17T04:50:54.922Z,7.20
2018-08-17T04:51:54.860Z,6.90
2018-08-17T04:52:55.796Z,6.70
2018-08-17T04:53:54.673Z,5.90
2018-08-17T04:54:54.634Z,6.00
2018-08-17T04:55:54.521Z,6.30
2018-08-17T04:56:54.445Z,6.60
2018-08-17T04:57:54.390Z,5.80
2018-08-17T04:58:54.294Z,5.70
2018-08-17T04:59:54.211Z,5.70
2018-08-17T05:02:36.472Z,5.80
2018-08-17T05:03:36.419Z,6.10
2018-08-17T05:04:36.313Z,6.00
2018-08-17T05:05:36.256Z,5.90
2018-08-17T05:06:36.154Z,6.40
2018-08-17T05:07:36.102Z,6.40
2018-08-17T05:08:36.016Z,6.30
2018-08-17T05:09:35.928Z,6.50
2018-08-17T05:10:35.839Z,6.40
2018-08-17T05:11:35.772Z,5.90
2018-08-17T05:12:35.682Z,6.70
2018-08-17T05:13:35.695Z,6.30
2018-08-17T05:14:35.532Z,6.10
2018-08-17T05:15:35.483Z,6.40
2018-08-17T05:16:35.364Z,6.40
2018-08-17T05:17:35.298Z,6.50
2018-08-17T05:18:35.232Z,6.10
2018-08-17T05:19:35.134Z,5.60
2018-08-17T05:20:35.046Z,5.80
2018-08-17T05:21:35.094Z,5.90
2018-08-17T05:22:34.889Z,6.00
2018-08-17T05:23:34.841Z,5.80
2018-08-17T05:24:34.738Z,6.00
2018-08-17T05:25:34.795Z,5.50
2018-08-17T05:26:34.582Z,5.80
2018-08-17T05:27:34.522Z,6.30
2018-08-17T05:28:34.434Z,6.10
2018-08-17T05:29:34.362Z,5.90
2018-08-17T05:30:34.279Z,6.00
2018-08-17T05:31:34.193Z,6.80
2018-08-17T05:32:34.102Z,6.60
2018-08-17T05:33:34.044Z,6.80
2018-08-17T05:34:33.944Z,7.20
2018-08-17T05:35:33.889Z,7.40
2018-08-17T05:36:33.784Z,6.90
2018-08-17T05:37:33.730Z,6.80
2018-08-17T05:38:33.644Z,6.70
2018-08-17T05:39:33.589Z,7.60
2018-08-17T05:40:33.475Z,7.60
2018-08-17T05:41:33.401Z,7.90
2018-08-17T05:42:33.324Z,7.50
2018-08-17T05:43:33.239Z,8.10
2018-08-17T05:44:33.189Z,7.70
2018-08-17T05:45:33.079Z,7.00
2018-08-17T05:46:33.010Z,7.20
2018-08-17T05:49:15.002Z,7.50
2018-08-17T05:50:14.909Z,7.40
2018-08-17T05:51:14.834Z,6.90
2018-08-17T05:52:14.764Z,6.50
2018-08-17T05:53:14.668Z,7.30
2018-08-17T05:54:15.617Z,7.50
2018-08-17T05:55:14.542Z,7.20
2018-08-17T05:56:14.476Z,7.70
2018-08-17T05:57:14.364Z,7.60
2018-08-17T05:59:56.512Z,7.40
2018-08-17T06:02:38.503Z,7.40
2018-08-17T06:03:38.429Z,7.40
2018-08-17T06:04:38.351Z,7.10
2018-08-17T06:05:38.313Z,7.50
2018-08-17T06:06:38.173Z,7.70
2018-08-17T06:07:38.099Z,7.20
2018-08-17T06:08:38.029Z,7.10
2018-08-17T06:11:20.355Z,7.00
2018-08-17T06:12:19.925Z,7.10
2018-08-17T06:13:19.835Z,6.70
2018-08-17T06:14:19.774Z,6.90
2018-08-17T06:15:19.681Z,7.50
2018-08-17T06:16:20.614Z,7.30
2018-08-17T06:17:19.517Z,7.40
2018-08-17T06:18:19.446Z,7.20
2018-08-17T06:19:19.417Z,7.10
2018-08-17T06:20:19.291Z,7.80
2018-08-17T06:21:19.377Z,7.80
2018-08-17T06:22:19.139Z,7.70
2018-08-17T06:23:19.050Z,7.50
2018-08-17T06:24:18.967Z,7.60
2018-08-17T06:25:18.884Z,7.90
2018-08-17T06:26:18.868Z,8.10
2018-08-17T06:27:18.743Z,7.30
2018-08-17T06:28:18.652Z,7.40
2018-08-17T06:29:18.573Z,6.80
2018-08-17T06:30:18.522Z,7.40
2018-08-17T06:31:18.421Z,7.20
2018-08-17T06:32:18.372Z,7.50
2018-08-17T06:33:18.262Z,7.40
2018-08-17T06:36:00.509Z,7.40
2018-08-17T06:37:00.469Z,7.20
2018-08-17T06:38:00.336Z,7.20
2018-08-17T06:39:00.273Z,6.90
2018-08-17T06:40:00.205Z,6.50
2018-08-17T06:41:00.110Z,6.70
2018-08-17T06:42:00.039Z,6.50
2018-08-17T06:42:59.949Z,7.30
2018-08-17T06:43:59.879Z,7.70
2018-08-17T06:46:42.008Z,7.80
2018-08-17T06:47:42.000Z,8.20
2018-08-17T06:48:41.857Z,8.40
2018-08-17T06:51:24.057Z,8.40
2018-08-17T06:52:24.962Z,8.20
2018-08-17T06:53:23.855Z,8.10
2018-08-17T06:54:23.767Z,7.90
2018-08-17T06:55:23.687Z,7.20
2018-08-17T06:58:05.525Z,6.30
2018-08-17T06:59:05.506Z,5.50
2018-08-17T07:00:05.353Z,5.60
2018-08-17T07:01:05.281Z,5.50
2018-08-17T07:02:05.178Z,4.90
2018-08-17T07:03:05.145Z,5.20
2018-08-17T07:04:05.044Z,4.80
2018-08-17T07:05:04.964Z,4.70
2018-08-17T07:06:04.864Z,4.70
2018-08-17T07:07:04.822Z,4.70
2018-08-17T07:08:04.733Z,4.10
2018-08-17T07:09:04.782Z,4.10
2018-08-17T07:10:04.556Z,4.60
2018-08-17T07:11:04.482Z,4.20
2018-08-17T07:12:04.404Z,4.20
2018-08-17T07:13:04.383Z,4.40
2018-08-17T07:14:04.261Z,4.10
2018-08-17T07:15:04.162Z,4.10
2018-08-17T07:16:04.068Z,4.00
2018-08-17T07:17:03.993Z,3.90
2018-08-17T07:18:03.913Z,4.20
2018-08-17T07:19:03.885Z,4.50
2018-08-17T07:20:03.750Z,4.40
2018-08-17T07:21:03.746Z,4.40
2018-08-17T07:22:03.646Z,4.40
2018-08-17T07:23:03.529Z,4.00
2018-08-17T07:24:03.481Z,4.40
2018-08-17T07:25:03.382Z,4.60
2018-08-17T07:26:03.280Z,4.90
2018-08-17T07:27:03.196Z,4.20
2018-08-17T07:28:03.138Z,4.00
2018-08-17T07:29:03.072Z,4.10
2018-08-17T07:30:02.976Z,4.60
2018-08-17T07:32:45.016Z,4.70
2018-08-17T07:35:27.029Z,5.00
2018-08-17T07:36:26.951Z,4.60
2018-08-17T07:37:26.858Z,4.60
2018-08-17T07:38:26.782Z,4.90
2018-08-17T07:39:26.776Z,4.70
2018-08-17T07:40:26.631Z,4.80
2018-08-17T07:41:26.545Z,4.80
2018-08-17T07:44:08.517Z,4.90
2018-08-17T07:45:08.466Z,4.90
2018-08-17T07:46:08.385Z,4.60
2018-08-17T07:47:08.296Z,4.70
2018-08-17T07:48:08.316Z,4.70
2018-08-17T07:49:08.138Z,4.30
2018-08-17T07:50:08.096Z,4.80
2018-08-17T07:51:08.036Z,4.80
2018-08-17T07:52:07.883Z,4.90
2018-08-17T07:53:07.814Z,4.10
2018-08-17T07:54:07.742Z,4.40
2018-08-17T07:56:50.031Z,4.70
2018-08-17T07:57:49.944Z,4.30
2018-08-17T07:58:49.984Z,4.10
2018-08-17T07:59:49.996Z,4.70
2018-08-17T08:00:49.706Z,4.60
2018-08-17T08:01:49.664Z,4.30
2018-08-17T08:02:49.593Z,4.50
2018-08-17T08:03:49.494Z,4.80
2018-08-17T08:04:49.394Z,4.60
2018-08-17T08:05:49.337Z,4.60
2018-08-17T08:06:49.234Z,4.60
2018-08-17T08:07:49.175Z,4.40
2018-08-17T08:08:49.079Z,4.10
2018-08-17T08:11:31.072Z,4.40
2018-08-17T08:12:30.955Z,4.00
2018-08-17T08:13:30.912Z,3.70
2018-08-17T08:14:30.821Z,4.20
2018-08-17T08:15:30.711Z,4.30
2018-08-17T08:18:12.552Z,4.50
2018-08-17T08:19:12.463Z,4.50
2018-08-17T08:20:12.452Z,4.20
2018-08-17T08:21:12.314Z,3.90
2018-08-17T08:22:12.278Z,4.30
2018-08-17T08:23:12.157Z,4.30
2018-08-17T08:24:12.081Z,4.30
2018-08-17T08:25:11.980Z,4.20
2018-08-17T08:26:11.908Z,4.20
2018-08-17T08:27:12.874Z,4.30
2018-08-17T08:28:11.738Z,4.10
2018-08-17T08:29:11.689Z,3.90
2018-08-17T08:30:11.597Z,4.00
2018-08-17T08:32:53.597Z,4.70
2018-08-17T08:33:53.478Z,5.10
2018-08-17T08:34:53.372Z,4.80
2018-08-17T08:35:53.328Z,4.20
2018-08-17T08:36:53.234Z,4.60
2018-08-17T08:37:53.142Z,4.50
2018-08-17T08:38:53.075Z,4.60
2018-08-17T08:41:35.050Z,4.30
2018-08-17T08:42:35.006Z,4.00
2018-08-17T08:43:34.891Z,4.30
2018-08-17T08:44:34.835Z,4.30
2018-08-17T08:45:34.766Z,4.40
2018-08-17T08:46:34.662Z,4.70
2018-08-17T08:47:34.600Z,5.20
2018-08-17T08:48:34.529Z,5.60
2018-08-17T08:49:34.434Z,6.20
2018-08-17T08:50:34.342Z,6.30
2018-08-17T08:51:34.274Z,6.00
2018-08-17T08:54:16.772Z,8.10
2018-08-17T08:55:16.468Z,8.30
2018-08-17T08:56:16.410Z,7.80
2018-08-17T08:57:16.311Z,8.60
2018-08-17T08:58:16.237Z,8.90
2018-08-17T08:59:16.187Z,8.40
2018-08-17T09:00:16.092Z,8.60
2018-08-17T09:01:16.015Z,8.50
2018-08-17T09:02:15.927Z,8.00
2018-08-17T09:03:16.876Z,8.00
2018-08-17T09:04:15.760Z,7.90
2018-08-17T09:06:58.045Z,6.70
2018-08-17T09:07:57.996Z,5.70
2018-08-17T09:08:57.928Z,4.80
2018-08-17T09:09:57.818Z,6.40
2018-08-17T09:10:57.736Z,7.00
2018-08-17T09:11:57.652Z,7.30
2018-08-17T09:12:57.569Z,7.20
2018-08-17T09:13:57.514Z,8.30
2018-08-17T09:14:57.440Z,9.40
2018-08-17T09:15:57.368Z,9.20
2018-08-17T09:16:57.258Z,9.10
2018-08-17T09:17:57.183Z,9.70
2018-08-17T09:18:57.099Z,10.80
2018-08-17T09:19:57.041Z,11.70
2018-08-17T09:20:56.965Z,12.10
2018-08-17T09:21:56.876Z,12.10
2018-08-17T09:22:56.788Z,11.90
2018-08-17T09:23:56.789Z,11.40
2018-08-17T09:24:56.633Z,11.00
2018-08-17T09:25:56.563Z,11.50
2018-08-17T09:26:56.472Z,11.90
2018-08-17T09:29:38.577Z,12.90
2018-08-17T09:30:38.500Z,12.40
2018-08-17T09:31:38.426Z,13.10
2018-08-17T09:32:38.341Z,14.50
2018-08-17T09:33:38.232Z,14.20
2018-08-17T09:34:38.179Z,14.40
2018-08-17T09:35:38.104Z,13.60
2018-08-17T09:36:38.018Z,14.40
2018-08-17T09:37:37.942Z,13.30
2018-08-17T09:38:37.859Z,13.80
2018-08-17T09:39:37.762Z,14.00
2018-08-17T09:40:37.712Z,14.20
2018-08-17T09:41:37.639Z,13.80
2018-08-17T09:42:37.565Z,13.50
2018-08-17T09:43:37.449Z,12.80
2018-08-17T09:44:37.381Z,12.80
2018-08-17T09:45:37.328Z,12.40
2018-08-17T09:48:19.557Z,12.90
2018-08-17T09:49:19.483Z,12.70
2018-08-17T09:50:19.464Z,13.00
2018-08-17T09:51:19.372Z,13.50
2018-08-17T09:52:19.240Z,13.80
2018-08-17T09:53:19.175Z,13.20
2018-08-17T09:54:19.097Z,13.80
2018-08-17T09:55:19.106Z,13.10
2018-08-17T09:56:18.953Z,13.10
2018-08-17T09:57:18.899Z,12.30
2018-08-17T09:58:18.761Z,13.10
2018-08-17T09:59:18.708Z,13.90
2018-08-17T10:00:18.640Z,15.70
2018-08-17T10:01:19.557Z,14.90
2018-08-17T10:02:18.453Z,14.60
2018-08-17T10:03:18.387Z,14.90
2018-08-17T10:04:18.301Z,15.10
2018-08-17T10:05:18.227Z,15.20
2018-08-17T10:06:18.172Z,14.20
2018-08-17T10:07:18.062Z,13.40
2018-08-17T10:08:18.010Z,12.70
2018-08-17T10:09:17.919Z,11.70
2018-08-17T10:10:17.841Z,11.30
2018-08-17T10:13:00.100Z,11.00
2018-08-17T10:13:59.991Z,10.00
2018-08-17T10:14:59.907Z,9.90
2018-08-17T10:15:59.836Z,9.30
2018-08-17T10:16:59.769Z,9.70
2018-08-17T10:17:59.674Z,9.70
2018-08-17T10:18:59.597Z,9.30
2018-08-17T10:19:59.547Z,8.40
2018-08-17T10:20:59.504Z,8.50
2018-08-17T10:22:00.742Z,8.20
2018-08-17T10:22:59.282Z,8.20
2018-08-17T10:23:59.227Z,7.80
2018-08-17T10:24:59.124Z,7.90
2018-08-17T10:25:59.071Z,7.90
2018-08-17T10:26:59.007Z,8.50
2018-08-17T10:27:58.923Z,8.90
2018-08-17T10:28:58.828Z,8.40
2018-08-17T10:29:58.737Z,8.00
2018-08-17T10:30:58.670Z,8.50
2018-08-17T10:31:58.598Z,9.40
2018-08-17T10:32:58.529Z,9.70
2018-08-17T10:33:58.504Z,9.90
2018-08-17T10:34:58.357Z,10.10
2018-08-17T10:37:40.599Z,10.10
2018-08-17T10:38:40.506Z,11.00
2018-08-17T10:39:40.417Z,11.70
2018-08-17T10:40:40.377Z,11.00
2018-08-17T10:41:40.264Z,11.30
2018-08-17T10:44:22.623Z,12.20
2018-08-17T10:45:22.504Z,12.20
2018-08-17T10:46:22.424Z,11.80
2018-08-17T10:47:22.346Z,12.40
2018-08-17T10:48:22.308Z,11.90
2018-08-17T10:49:22.211Z,12.60
2018-08-17T10:50:22.107Z,11.80
2018-08-17T10:51:22.041Z,12.30
2018-08-17T10:52:21.974Z,11.70
2018-08-17T10:53:21.904Z,11.90
2018-08-17T10:54:21.821Z,12.40
2018-08-17T10:57:04.076Z,11.80
2018-08-17T10:58:04.048Z,12.40
2018-08-17T10:59:03.938Z,12.30
2018-08-17T11:00:03.851Z,11.60
2018-08-17T11:01:03.767Z,11.40
2018-08-17T11:02:03.703Z,11.60
2018-08-17T11:03:03.613Z,12.40
2018-08-17T11:04:03.562Z,12.60
2018-08-17T11:05:03.473Z,12.20
2018-08-17T11:06:03.437Z,11.90
2018-08-17T11:07:03.307Z,12.20
2018-08-17T11:09:45.611Z,14.00
2018-08-17T11:10:45.528Z,12.10
2018-08-17T11:11:45.431Z,13.00
2018-08-17T11:12:45.364Z,11.60
2018-08-17T11:13:45.277Z,10.00
2018-08-17T11:14:45.205Z,8.20
2018-08-17T11:15:45.191Z,8.40
2018-08-17T11:16:45.047Z,8.20
2018-08-17T11:17:44.969Z,7.90
2018-08-17T11:18:44.898Z,7.70
2018-08-17T11:19:44.832Z,7.20
2018-08-17T11:20:44.761Z,6.80
2018-08-17T11:21:44.676Z,6.80
2018-08-17T11:24:26.607Z,6.30
2018-08-17T11:25:26.555Z,6.00
2018-08-17T11:26:26.459Z,5.50
2018-08-17T11:27:26.373Z,6.00
2018-08-17T11:28:26.286Z,5.30
2018-08-17T11:29:26.203Z,5.70
2018-08-17T11:30:26.138Z,6.40
2018-08-17T11:33:08.111Z,7.10
2018-08-17T11:34:08.027Z,6.80
2018-08-17T11:35:07.962Z,7.20
2018-08-17T11:37:50.093Z,7.10
2018-08-17T11:38:50.033Z,6.80
2018-08-17T11:39:49.959Z,6.70
2018-08-17T11:40:50.907Z,7.40
2018-08-17T11:41:49.790Z,7.20
2018-08-17T11:42:49.716Z,7.70
2018-08-17T11:43:49.629Z,7.50
2018-08-17T11:46:31.814Z,7.90
2018-08-17T11:47:31.741Z,7.70
2018-08-17T11:48:32.226Z,7.50
2018-08-17T11:49:32.210Z,7.80
2018-08-17T11:50:32.200Z,7.10
2018-08-17T11:51:31.220Z,7.10
2018-08-17T11:52:31.138Z,6.50
2018-08-17T11:53:31.097Z,5.90
2018-08-17T11:54:30.980Z,6.30
2018-08-17T11:55:30.939Z,5.90
2018-08-17T11:56:30.833Z,6.60
2018-08-17T11:57:30.769Z,6.40
2018-08-17T11:58:30.684Z,7.90
2018-08-17T11:59:30.615Z,7.70
2018-08-17T12:00:30.516Z,7.10
2018-08-17T12:01:31.460Z,6.80
2018-08-17T12:02:30.377Z,7.10
2018-08-17T12:03:30.310Z,6.50
2018-08-17T12:04:30.200Z,6.80
2018-08-17T12:05:30.131Z,6.90
2018-08-17T12:06:30.086Z,5.90
2018-08-17T12:07:29.981Z,5.60
2018-08-17T12:08:29.956Z,5.70
2018-08-17T12:09:29.831Z,5.50
2018-08-17T12:10:29.770Z,5.10
2018-08-17T12:11:30.691Z,5.30
2018-08-17T12:12:29.609Z,5.70
2018-08-17T12:13:29.547Z,6.00
2018-08-17T12:14:29.433Z,6.10
2018-08-17T12:15:29.383Z,6.20
2018-08-17T12:16:29.308Z,6.00
2018-08-17T12:17:29.233Z,6.00
2018-08-17T12:18:29.138Z,5.40
2018-08-17T12:19:29.063Z,5.50
2018-08-17T12:20:28.985Z,5.40
2018-08-17T12:21:28.933Z,5.60
2018-08-17T12:22:28.819Z,5.80
2018-08-17T12:23:28.750Z,6.00
2018-08-17T12:24:28.801Z,6.10
2018-08-17T12:25:28.605Z,5.40
2018-08-17T12:26:28.543Z,5.60
2018-08-17T12:27:28.458Z,6.10
2018-08-17T12:28:28.398Z,6.10
2018-08-17T12:29:28.287Z,6.90
2018-08-17T12:30:28.208Z,7.00
2018-08-17T12:31:28.149Z,6.70
2018-08-17T12:32:28.077Z,5.90
2018-08-17T12:33:28.012Z,5.70
2018-08-17T12:34:27.908Z,6.00
2018-08-17T12:35:27.830Z,5.60
2018-08-17T12:36:27.829Z,5.60
2018-08-17T12:37:27.678Z,6.10
2018-08-17T12:38:27.602Z,6.00
2018-08-17T12:39:27.516Z,5.90
2018-08-17T12:40:27.457Z,5.20
2018-08-17T12:41:27.407Z,5.60
2018-08-17T12:42:27.290Z,5.10
2018-08-17T12:43:27.215Z,4.80
2018-08-17T12:44:27.144Z,4.70
2018-08-17T12:47:09.137Z,4.70
2018-08-17T12:48:10.086Z,5.30
2018-08-17T12:49:08.983Z,5.90
2018-08-17T12:50:08.906Z,5.70
2018-08-17T12:51:08.815Z,5.80
2018-08-17T12:52:08.791Z,5.70
2018-08-17T12:53:08.689Z,6.30
2018-08-17T12:54:08.619Z,6.10
2018-08-17T12:55:08.539Z,5.60
2018-08-17T12:57:50.644Z,6.90
2018-08-17T12:58:50.605Z,6.30
2018-08-17T12:59:50.478Z,6.20
2018-08-17T13:02:32.639Z,6.20
2018-08-17T13:03:32.606Z,6.10
2018-08-17T13:04:32.469Z,6.00
2018-08-17T13:05:32.438Z,5.60
2018-08-17T13:06:32.336Z,5.80
2018-08-17T13:09:14.645Z,6.30
2018-08-17T13:10:14.580Z,6.50
2018-08-17T13:11:14.478Z,6.70
2018-08-17T13:12:14.396Z,7.10
2018-08-17T13:13:14.347Z,7.10
2018-08-17T13:14:14.295Z,7.60
2018-08-17T13:15:14.169Z,7.50
2018-08-17T13:16:14.125Z,6.20
2018-08-17T13:17:14.050Z,6.20
2018-08-17T13:18:13.948Z,6.90
2018-08-17T13:19:13.886Z,6.70
2018-08-17T13:21:56.135Z,6.40
2018-08-17T13:22:56.084Z,6.30
2018-08-17T13:23:55.980Z,5.90
2018-08-17T13:24:55.944Z,5.70
2018-08-17T13:25:55.836Z,6.10
2018-08-17T13:28:38.145Z,6.10
2018-08-17T13:29:38.103Z,5.10
2018-08-17T13:30:38.026Z,4.90
2018-08-17T13:31:37.937Z,4.70
2018-08-17T13:32:37.839Z,5.10
2018-08-17T13:33:37.758Z,5.60
2018-08-17T13:34:37.694Z,4.80
2018-08-17T13:37:19.654Z,5.40
2018-08-17T13:38:19.571Z,5.80
2018-08-17T13:39:19.504Z,4.90
2018-08-17T13:40:19.431Z,5.40
2018-08-17T13:41:19.337Z,5.30
2018-08-17T13:44:01.641Z,5.70
2018-08-17T13:45:02.602Z,5.90
2018-08-17T13:46:01.489Z,5.10
2018-08-17T13:47:01.420Z,4.90
2018-08-17T13:48:01.356Z,5.10
2018-08-17T13:49:01.363Z,5.10
2018-08-17T13:50:01.220Z,4.70
2018-08-17T13:51:01.158Z,5.40
2018-08-17T13:52:01.035Z,5.50
2018-08-17T13:54:43.148Z,5.10
2018-08-17T13:55:43.106Z,5.00
2018-08-17T13:56:43.019Z,5.50
2018-08-17T13:57:42.918Z,4.90
2018-08-17T13:58:42.936Z,5.10
2018-08-17T13:59:42.975Z,4.60
2018-08-17T14:00:42.860Z,4.40
2018-08-17T14:01:43.719Z,4.50
2018-08-17T14:02:43.173Z,4.50
2018-08-17T14:03:42.468Z,4.70
2018-08-17T14:04:42.389Z,4.70
2018-08-17T14:05:42.318Z,4.30
2018-08-17T14:06:42.281Z,4.80
2018-08-17T14:07:42.173Z,4.60
2018-08-17T14:08:42.073Z,4.30
2018-08-17T14:09:42.024Z,5.10
2018-08-17T14:10:41.932Z,4.40
2018-08-17T14:11:41.866Z,4.70
2018-08-17T14:12:41.804Z,4.70
2018-08-17T14:13:41.715Z,4.20
2018-08-17T14:14:41.629Z,4.60
2018-08-17T14:15:41.584Z,4.70
2018-08-17T14:16:41.488Z,4.30
2018-08-17T14:17:41.407Z,4.60
2018-08-17T14:18:41.313Z,4.10
2018-08-17T14:21:23.166Z,4.40
2018-08-17T14:22:23.142Z,4.70
2018-08-17T14:23:22.994Z,4.90
2018-08-17T14:26:05.171Z,4.40
2018-08-17T14:27:05.095Z,4.00
2018-08-17T14:28:05.036Z,4.40
2018-08-17T14:29:04.934Z,4.40
2018-08-17T14:30:04.841Z,4.30
2018-08-17T14:32:47.186Z,4.50
2018-08-17T14:33:47.095Z,3.80
2018-08-17T14:34:47.007Z,3.70
2018-08-17T14:37:29.160Z,4.10
2018-08-17T14:38:29.700Z,4.00
2018-08-17T14:39:29.003Z,4.00
2018-08-17T14:40:28.964Z,4.00
2018-08-17T14:41:28.851Z,4.10
2018-08-17T14:44:11.193Z,4.70
2018-08-17T14:45:11.094Z,4.40
2018-08-17T14:46:11.021Z,4.30
2018-08-17T14:47:10.945Z,4.40
2018-08-17T14:48:10.878Z,4.50
2018-08-17T14:49:10.824Z,4.20
2018-08-17T14:50:10.704Z,4.00
2018-08-17T14:51:10.643Z,4.30
2018-08-17T14:52:10.549Z,4.40
2018-08-17T14:53:10.486Z,4.30
2018-08-17T14:54:10.421Z,4.30
2018-08-17T14:55:10.328Z,3.70
2018-08-17T14:56:10.270Z,4.10
2018-08-17T14:57:10.179Z,4.10
2018-08-17T14:58:10.110Z,4.00
2018-08-17T14:59:10.038Z,3.60
2018-08-17T15:00:09.955Z,3.80
2018-08-17T15:01:09.943Z,3.70
2018-08-17T15:02:09.792Z,3.90
2018-08-17T15:04:51.704Z,3.60
2018-08-17T15:05:51.626Z,3.80
2018-08-17T15:06:51.540Z,4.00
2018-08-17T15:09:33.703Z,4.00
2018-08-17T15:10:33.607Z,4.00
2018-08-17T15:11:33.513Z,4.30